Time;durP1;ratioP1;P1;durP2;ratioP2;P2;SDS_P1;SDS_P2;PMS_P1;PMS_P2;Temp;Humidity;BMP_temperature;BMP_pressure;BME280_temperature;BME280_humidity;BME280_pressure;Samples;Min_cycle;Max_cycle;Signal;HPM_P1;HPM_P2
2022/03/04 00:00:18;;;;;;;6.77;1.50;;;24.50;99.90;;;;;;4915272;29;20195;-70
2022/03/04 00:02:46;;;;;;;18.77;3.73;;;24.80;99.90;;;;;;4916741;29;20191;-71
2022/03/04 00:05:13;;;;;;;9.87;1.63;;;24.80;99.90;;;;;;4916584;29;20181;-70
2022/03/04 00:07:41;;;;;;;4.13;1.10;;;24.60;99.90;;;;;;4915968;29;20217;-70
2022/03/04 00:10:09;;;;;;;7.33;1.37;;;25.00;99.90;;;;;;4916641;29;20180;-69
2022/03/04 00:12:36;;;;;;;5.63;1.00;;;25.60;99.90;;;;;;4914973;29;20548;-68
2022/03/04 00:15:05;;;;;;;6.97;0.87;;;26.10;99.90;;;;;;4915275;29;20181;-69
2022/03/04 00:17:33;;;;;;;11.03;1.30;;;26.70;99.90;;;;;;4916030;29;20220;-68
2022/03/04 00:20:00;;;;;;;5.73;1.20;;;27.20;99.90;;;;;;4916599;29;20173;-68
2022/03/04 00:22:28;;;;;;;9.00;1.37;;;27.50;99.90;;;;;;4916518;29;20182;-68
2022/03/04 00:25:38;;;;;;;4.77;1.03;;;27.40;99.90;;;;;;4915599;29;20181;-68
2022/03/04 00:28:05;;;;;;;5.97;1.53;;;26.90;99.90;;;;;;4915231;29;20261;-68
2022/03/04 00:30:33;;;;;;;5.27;0.77;;;26.70;99.90;;;;;;4916181;29;20264;-68
2022/03/04 00:33:01;;;;;;;2.17;0.43;;;26.80;99.90;;;;;;4919140;29;20208;-67
2022/03/04 00:35:29;;;;;;;4.60;0.77;;;27.20;99.90;;;;;;4915830;29;20726;-68
2022/03/04 00:37:56;;;;;;;4.63;1.20;;;27.20;99.90;;;;;;4915685;29;20714;-69
2022/03/04 00:40:24;;;;;;;3.23;0.70;;;27.80;99.90;;;;;;4916179;29;20184;-69
2022/03/04 00:42:52;;;;;;;3.67;0.60;;;28.00;99.90;;;;;;4915970;29;20192;-70
2022/03/04 00:45:20;;;;;;;3.27;0.60;;;27.50;99.90;;;;;;4914769;29;20182;-70
2022/03/04 00:47:48;;;;;;;1.07;0.30;;;27.20;99.90;;;;;;4915629;29;20281;-70
2022/03/04 00:50:15;;;;;;;1.20;0.30;;;27.20;99.90;;;;;;4916044;29;20720;-69
2022/03/04 00:52:43;;;;;;;2.20;0.60;;;26.60;99.90;;;;;;4915695;29;20225;-68
2022/03/04 00:55:11;;;;;;;4.70;0.63;;;27.00;99.90;;;;;;4915886;29;20266;-68
2022/03/04 00:57:39;;;;;;;2.47;0.80;;;27.60;99.90;;;;;;4915263;29;20237;-69
2022/03/04 01:00:07;;;;;;;3.33;0.70;;;27.60;99.90;;;;;;4915611;29;20706;-68
2022/03/04 01:02:35;;;;;;;2.80;0.60;;;27.40;99.90;;;;;;4915223;29;20284;-68
2022/03/04 01:05:03;;;;;;;3.50;0.83;;;27.40;99.90;;;;;;4915818;29;20233;-69
2022/03/04 01:10:53;;;;;;;2.73;0.60;;;27.30;99.90;;;;;;4896269;29;20610;-69
2022/03/04 01:13:21;;;;;;;6.43;1.30;;;27.00;99.90;;;;;;4896703;29;20185;-69
2022/03/04 01:15:49;;;;;;;2.13;0.50;;;26.70;99.90;;;;;;4896847;29;20200;-69
2022/03/04 01:18:17;;;;;;;3.40;0.70;;;26.30;99.90;;;;;;4898035;29;20189;-69
2022/03/04 01:20:45;;;;;;;7.23;0.60;;;25.40;99.90;;;;;;4903236;29;20178;-69
2022/03/04 01:23:12;;;;;;;3.47;0.50;;;24.80;99.90;;;;;;4904906;29;20178;-69
2022/03/04 01:25:40;;;;;;;2.40;0.47;;;24.80;99.90;;;;;;4921547;29;20173;-69
2022/03/04 01:28:08;;;;;;;2.23;0.40;;;25.20;99.90;;;;;;4921857;29;20532;-68
2022/03/04 01:30:36;;;;;;;2.93;1.07;;;25.60;99.90;;;;;;4921960;29;20177;-70
2022/03/04 01:33:04;;;;;;;2.00;0.50;;;26.00;99.90;;;;;;4921283;29;20189;-69
2022/03/04 01:35:32;;;;;;;2.50;0.57;;;27.00;99.90;;;;;;4921745;29;20196;-69
2022/03/04 01:37:59;;;;;;;4.20;0.90;;;27.30;99.90;;;;;;4921850;29;20299;-69
2022/03/04 01:40:27;;;;;;;2.33;0.60;;;27.00;99.90;;;;;;4921688;29;20672;-69
2022/03/04 01:42:55;;;;;;;1.27;0.60;;;26.30;99.90;;;;;;4921420;29;20185;-69
2022/03/04 01:45:23;;;;;;;3.17;0.53;;;26.00;99.90;;;;;;4921347;29;20181;-69
2022/03/04 01:47:51;;;;;;;4.67;1.13;;;25.70;99.90;;;;;;4921369;29;20621;-71
2022/03/04 01:50:18;;;;;;;4.10;0.90;;;25.50;99.90;;;;;;4921068;29;20197;-70
2022/03/04 01:52:46;;;;;;;2.70;0.60;;;25.50;99.90;;;;;;4920837;29;20721;-70
2022/03/04 01:55:14;;;;;;;3.43;0.93;;;25.60;99.90;;;;;;4921742;29;20269;-71
2022/03/04 01:57:41;;;;;;;1.67;0.60;;;26.30;99.90;;;;;;4921476;29;20606;-70
2022/03/04 02:00:12;;;;;;;3.37;0.77;;;26.30;99.90;;;;;;4921011;29;20650;-71
2022/03/04 02:02:42;;;;;;;3.17;0.80;;;26.20;99.90;;;;;;4921324;29;20189;-71
2022/03/04 02:05:16;;;;;;;3.30;0.77;;;26.10;99.90;;;;;;4921747;29;20184;-70
2022/03/04 02:07:45;;;;;;;1.23;0.30;;;26.50;99.90;;;;;;4921549;29;20184;-70
2022/03/04 02:10:13;;;;;;;1.03;0.30;;;27.50;99.90;;;;;;4921204;29;20272;-70
2022/03/04 02:12:41;;;;;;;1.23;0.30;;;27.60;99.90;;;;;;4921603;29;20182;-70
2022/03/04 02:15:10;;;;;;;1.20;0.47;;;27.90;99.90;;;;;;4921726;29;20177;-70
2022/03/04 02:17:38;;;;;;;5.10;0.53;;;28.30;99.90;;;;;;4921171;29;20663;-70
2022/03/04 02:20:07;;;;;;;2.13;0.50;;;28.30;99.90;;;;;;4921233;29;20181;-69
2022/03/04 02:22:35;;;;;;;2.67;0.70;;;27.60;99.90;;;;;;4921552;29;20190;-70
2022/03/04 02:25:05;;;;;;;2.97;0.60;;;26.90;99.90;;;;;;4921652;29;20224;-69
2022/03/04 02:27:33;;;;;;;3.13;0.77;;;26.60;99.90;;;;;;4921245;29;20208;-69
2022/03/04 02:30:01;;;;;;;1.57;0.60;;;26.70;99.90;;;;;;4919697;29;20271;-70
2022/03/04 02:32:29;;;;;;;1.47;0.57;;;26.80;99.90;;;;;;4918190;29;20272;-69
2022/03/04 02:34:57;;;;;;;2.60;0.80;;;27.10;99.90;;;;;;4918441;29;20188;-69
2022/03/04 02:37:25;;;;;;;1.60;0.70;;;27.20;99.90;;;;;;4918263;29;20240;-69
2022/03/04 02:39:53;;;;;;;2.23;0.57;;;26.90;99.90;;;;;;4918089;29;20186;-68
2022/03/04 02:42:22;;;;;;;2.53;0.53;;;26.60;99.90;;;;;;4918429;29;20209;-69
2022/03/04 02:44:50;;;;;;;2.33;0.80;;;26.40;99.90;;;;;;4918255;29;20252;-69
2022/03/04 02:47:17;;;;;;;2.10;0.50;;;26.40;99.90;;;;;;4917982;29;20271;-69
2022/03/04 02:49:45;;;;;;;3.23;0.60;;;26.50;99.90;;;;;;4917994;29;20189;-69
2022/03/04 02:52:13;;;;;;;4.67;0.70;;;25.90;99.90;;;;;;4918169;29;20199;-69
2022/03/04 02:54:40;;;;;;;2.80;0.50;;;26.10;99.90;;;;;;4917792;29;20197;-70
2022/03/04 02:57:08;;;;;;;1.57;0.43;;;26.40;99.90;;;;;;4917823;29;20589;-69
2022/03/04 02:59:36;;;;;;;2.57;0.60;;;26.70;99.90;;;;;;4917681;29;20185;-70
2022/03/04 03:02:04;;;;;;;1.90;0.60;;;27.10;99.90;;;;;;4917926;29;20714;-69
2022/03/04 03:04:31;;;;;;;1.00;0.40;;;27.30;99.90;;;;;;4899151;29;20182;-69
2022/03/04 03:06:59;;;;;;;0.80;0.30;;;27.50;99.90;;;;;;4899115;29;20265;-69
2022/03/04 03:09:27;;;;;;;2.93;0.57;;;27.50;99.90;;;;;;4899316;29;20206;-69
2022/03/04 03:11:55;;;;;;;4.30;0.70;;;27.10;99.90;;;;;;4917876;29;20196;-70
2022/03/04 03:14:22;;;;;;;3.47;0.60;;;27.00;99.90;;;;;;4917656;29;20181;-68
2022/03/04 03:16:50;;;;;;;3.00;1.10;;;26.50;99.90;;;;;;4917750;29;20756;-70
2022/03/04 03:19:18;;;;;;;2.10;0.60;;;25.90;99.90;;;;;;4917436;29;20634;-71
2022/03/04 03:21:46;;;;;;;2.37;0.70;;;25.50;99.90;;;;;;4917450;29;20201;-70
2022/03/04 03:24:14;;;;;;;6.57;0.80;;;25.10;99.90;;;;;;4917681;29;20209;-70
2022/03/04 03:26:41;;;;;;;5.87;0.97;;;24.90;99.90;;;;;;4917659;29;20187;-71
2022/03/04 03:29:09;;;;;;;3.77;1.27;;;24.80;99.90;;;;;;4917598;29;20552;-70
2022/03/04 03:31:37;;;;;;;2.37;0.73;;;24.70;99.90;;;;;;4917112;29;20682;-70
2022/03/04 03:34:05;;;;;;;3.77;0.60;;;24.80;99.90;;;;;;4917190;29;20634;-70
2022/03/04 03:36:32;;;;;;;3.07;0.80;;;25.00;99.90;;;;;;4917348;29;20666;-70
2022/03/04 03:39:00;;;;;;;2.00;0.60;;;25.40;99.90;;;;;;4917404;29;20185;-69
2022/03/04 03:44:50;;;;;;;1.03;0.33;;;25.30;99.90;;;;;;4916508;29;20196;-70
2022/03/04 03:47:17;;;;;;;3.13;0.60;;;25.00;99.90;;;;;;4916890;29;20201;-70
2022/03/04 03:49:45;;;;;;;5.53;0.60;;;24.80;99.90;;;;;;4916683;29;20552;-70
2022/03/04 03:52:13;;;;;;;3.43;0.63;;;24.80;99.90;;;;;;4898277;29;20202;-69
2022/03/04 03:54:41;;;;;;;4.63;1.00;;;24.70;99.90;;;;;;4898097;29;20675;-70
2022/03/04 03:57:10;;;;;;;4.77;0.70;;;25.30;99.90;;;;;;4915199;29;20311;-70
2022/03/04 03:59:38;;;;;;;4.77;0.87;;;25.40;99.90;;;;;;4915909;29;20208;-70
2022/03/04 04:02:06;;;;;;;1.63;0.50;;;25.50;99.90;;;;;;4916504;29;20181;-70
2022/03/04 04:04:34;;;;;;;4.03;0.50;;;25.30;99.90;;;;;;4916441;29;20194;-71
2022/03/04 04:07:08;;;;;;;2.03;0.50;;;25.20;99.90;;;;;;4916495;29;20729;-71
2022/03/04 04:09:36;;;;;;;1.97;0.60;;;25.20;99.90;;;;;;4916220;29;20651;-71
2022/03/04 04:12:05;;;;;;;3.20;0.67;;;25.30;99.90;;;;;;4915030;29;20239;-71
2022/03/04 04:14:34;;;;;;;3.17;1.00;;;25.40;99.90;;;;;;4916359;29;20297;-71
2022/03/04 04:17:02;;;;;;;4.17;0.70;;;25.50;99.90;;;;;;4916439;29;20292;-71
2022/03/04 04:19:30;;;;;;;2.33;0.67;;;25.50;99.90;;;;;;4916066;29;20241;-72
2022/03/04 04:21:58;;;;;;;3.83;0.60;;;25.60;99.90;;;;;;4916234;29;20193;-70
2022/03/04 04:24:25;;;;;;;3.83;0.80;;;25.60;99.90;;;;;;4916360;29;20502;-71
2022/03/04 04:26:53;;;;;;;4.37;0.83;;;25.80;99.90;;;;;;4916039;29;20189;-71
2022/03/04 04:29:21;;;;;;;6.20;0.93;;;25.90;99.90;;;;;;4916427;29;20189;-71
2022/03/04 04:32:40;;;;;;;6.13;1.00;;;26.00;99.90;;;;;;4915834;29;20177;-71
2022/03/04 04:35:08;;;;;;;6.20;0.90;;;26.30;99.90;;;;;;4916309;29;20572;-71
2022/03/04 04:37:36;;;;;;;4.67;0.97;;;26.30;99.90;;;;;;4916080;29;20239;-71
2022/03/04 04:40:05;;;;;;;3.57;0.87;;;26.40;99.90;;;;;;4915867;29;20189;-71
2022/03/04 04:42:33;;;;;;;4.07;0.97;;;26.60;99.90;;;;;;4915925;29;20189;-71
2022/03/04 04:45:01;;;;;;;4.60;0.87;;;26.50;99.90;;;;;;4916191;29;20183;-71
2022/03/04 04:47:28;;;;;;;3.90;0.73;;;26.30;99.90;;;;;;4916074;29;20245;-71
2022/03/04 04:49:56;;;;;;;1.70;0.70;;;26.20;99.90;;;;;;4915751;29;20189;-70
2022/03/04 04:52:24;;;;;;;4.73;1.00;;;26.00;99.90;;;;;;4915575;29;20213;-70
2022/03/04 04:54:52;;;;;;;5.87;0.97;;;26.10;99.90;;;;;;4914267;29;20185;-71
2022/03/04 04:57:20;;;;;;;4.20;0.90;;;26.10;99.90;;;;;;4914695;29;20244;-71
2022/03/04 04:59:48;;;;;;;3.40;1.10;;;26.10;99.90;;;;;;4914713;29;20616;-70
2022/03/04 05:02:15;;;;;;;5.03;0.70;;;26.90;99.90;;;;;;4915375;29;20547;-69
2022/03/04 05:04:43;;;;;;;4.23;0.80;;;26.80;99.90;;;;;;4914785;29;20491;-70
2022/03/04 05:07:11;;;;;;;3.70;1.07;;;27.10;99.90;;;;;;4915784;29;20224;-70
2022/03/04 05:09:38;;;;;;;1.57;0.40;;;26.90;99.90;;;;;;4915545;29;20181;-71
2022/03/04 05:12:07;;;;;;;1.33;0.40;;;27.50;99.90;;;;;;4915666;29;20185;-70
2022/03/04 05:14:34;;;;;;;2.07;0.63;;;27.30;99.90;;;;;;4915626;29;20180;-69
2022/03/04 05:17:02;;;;;;;2.77;0.70;;;26.90;99.90;;;;;;4915440;29;20703;-70
2022/03/04 05:19:30;;;;;;;4.17;0.80;;;26.70;99.90;;;;;;4915663;29;20333;-69
2022/03/04 05:21:58;;;;;;;2.90;0.70;;;26.80;99.90;;;;;;4915582;29;20585;-70
2022/03/04 05:24:25;;;;;;;7.73;0.93;;;26.70;99.90;;;;;;4915651;29;20177;-69
2022/03/04 05:26:53;;;;;;;2.83;0.60;;;26.60;99.90;;;;;;4914339;29;20177;-71
2022/03/04 05:29:21;;;;;;;2.83;0.83;;;26.80;99.90;;;;;;4913881;29;20181;-69
2022/03/04 05:31:49;;;;;;;3.33;0.70;;;26.90;99.90;;;;;;4913651;29;20270;-71
2022/03/04 05:34:16;;;;;;;3.77;0.97;;;26.90;99.90;;;;;;4913721;29;20188;-70
2022/03/04 05:36:44;;;;;;;3.33;1.03;;;26.50;99.90;;;;;;4913989;29;20228;-71
2022/03/04 05:39:13;;;;;;;2.07;0.60;;;26.50;99.90;;;;;;4914113;29;20193;-71
2022/03/04 05:41:41;;;;;;;3.50;0.80;;;26.80;99.90;;;;;;4914956;29;20193;-70
2022/03/04 05:44:09;;;;;;;2.33;0.60;;;26.60;99.90;;;;;;4915013;29;20674;-71
2022/03/04 05:46:37;;;;;;;4.67;1.50;;;26.40;99.90;;;;;;4915472;29;20547;-69
2022/03/04 05:49:05;;;;;;;3.80;0.60;;;26.00;99.90;;;;;;4915496;29;20196;-69
2022/03/04 05:51:33;;;;;;;0.67;0.43;;;25.40;99.90;;;;;;4913793;29;20638;-69
2022/03/04 05:54:01;;;;;;;2.40;0.70;;;24.80;99.90;;;;;;4915018;29;20197;-69
2022/03/04 05:56:28;;;;;;;4.57;0.70;;;24.70;99.90;;;;;;4914739;29;20288;-70
2022/03/04 05:58:56;;;;;;;5.33;1.10;;;24.70;99.90;;;;;;4913217;29;20649;-71
2022/03/04 06:01:24;;;;;;;2.60;0.90;;;24.70;99.90;;;;;;4914901;29;20241;-72
2022/03/04 06:03:51;;;;;;;6.73;0.90;;;24.70;99.90;;;;;;4915098;29;20628;-71
2022/03/04 06:06:20;;;;;;;4.53;0.83;;;24.50;99.90;;;;;;4917266;29;20181;-72
2022/03/04 06:08:48;;;;;;;2.73;0.93;;;24.70;99.90;;;;;;4917986;29;20181;-72
2022/03/04 06:11:16;;;;;;;3.40;1.03;;;24.70;99.90;;;;;;4913809;29;20276;-72
2022/03/04 06:13:44;;;;;;;4.87;1.20;;;25.00;99.90;;;;;;4918175;29;20279;-72
2022/03/04 06:16:12;;;;;;;3.33;0.90;;;25.00;99.90;;;;;;4918726;29;20705;-72
2022/03/04 06:18:39;;;;;;;1.77;0.80;;;24.70;99.90;;;;;;4918535;29;20241;-72
2022/03/04 06:21:07;;;;;;;4.23;1.00;;;24.60;99.90;;;;;;4918698;29;20192;-73
2022/03/04 06:23:35;;;;;;;3.37;1.00;;;24.60;99.90;;;;;;4918130;29;20341;-72
2022/03/04 06:26:03;;;;;;;2.67;0.70;;;24.60;99.90;;;;;;4918325;29;20220;-72
2022/03/04 06:28:31;;;;;;;0.77;0.40;;;24.40;99.90;;;;;;4916828;29;20207;-72
2022/03/04 06:30:58;;;;;;;3.90;0.50;;;24.30;99.90;;;;;;4915529;29;20616;-71
2022/03/04 06:33:32;;;;;;;1.57;0.60;;;24.20;99.90;;;;;;4917650;29;20196;-72
2022/03/04 06:36:05;;;;;;;5.20;0.87;;;24.10;99.90;;;;;;4918391;29;20204;-71
2022/03/04 06:38:34;;;;;;;4.47;0.83;;;23.60;99.90;;;;;;4918288;29;20208;-71
2022/03/04 06:41:03;;;;;;;2.33;0.97;;;23.70;99.90;;;;;;4916979;29;20308;-71
2022/03/04 06:43:32;;;;;;;4.47;0.80;;;23.80;99.90;;;;;;4917708;29;20252;-71
2022/03/04 06:46:01;;;;;;;3.10;1.40;;;23.90;99.90;;;;;;4918250;29;20217;-72
2022/03/04 06:48:29;;;;;;;2.47;1.07;;;23.90;99.90;;;;;;4917808;29;20185;-71
2022/03/04 06:50:57;;;;;;;2.00;0.73;;;24.10;99.90;;;;;;4916876;29;20201;-72
2022/03/04 06:53:26;;;;;;;5.70;0.93;;;24.20;99.90;;;;;;4917490;29;20242;-72
2022/03/04 06:55:54;;;;;;;4.20;1.10;;;24.20;99.90;;;;;;4917868;29;20185;-72
2022/03/04 06:58:22;;;;;;;3.03;1.07;;;24.40;99.90;;;;;;4917775;29;20287;-72
2022/03/04 07:00:49;;;;;;;3.87;0.90;;;24.50;99.90;;;;;;4917683;29;20189;-71
2022/03/04 07:03:18;;;;;;;4.13;1.00;;;24.50;99.90;;;;;;4917520;29;20204;-72
2022/03/04 07:05:46;;;;;;;5.23;1.27;;;24.60;99.90;;;;;;4917753;29;20217;-72
2022/03/04 07:08:14;;;;;;;2.57;1.00;;;25.00;99.90;;;;;;4916628;29;20186;-71
2022/03/04 07:10:46;;;;;;;5.17;1.17;;;25.40;99.90;;;;;;4917815;29;20599;-70
2022/03/04 07:13:14;;;;;;;1.80;0.97;;;25.30;99.90;;;;;;4917339;29;20651;-70
2022/03/04 07:15:42;;;;;;;2.53;1.00;;;25.20;99.90;;;;;;4917609;29;20188;-71
2022/03/04 07:18:10;;;;;;;2.40;0.70;;;25.70;99.90;;;;;;4917093;29;20324;-69
2022/03/04 07:20:39;;;;;;;2.17;0.80;;;25.80;99.90;;;;;;4917350;29;20189;-70
2022/03/04 07:23:07;;;;;;;5.20;1.10;;;25.70;99.90;;;;;;4917353;29;20193;-71
2022/03/04 07:25:35;;;;;;;3.73;1.07;;;25.40;99.90;;;;;;4916155;29;20189;-70
2022/03/04 07:28:04;;;;;;;3.83;1.30;;;25.00;99.90;;;;;;4917532;29;20182;-71
2022/03/04 07:30:32;;;;;;;3.57;0.90;;;24.80;99.90;;;;;;4917344;29;20181;-69
2022/03/04 07:33:01;;;;;;;3.80;1.40;;;24.60;99.90;;;;;;4916990;29;20330;-70
2022/03/04 07:35:28;;;;;;;3.77;1.30;;;24.60;99.90;;;;;;4917222;29;20280;-70
2022/03/04 07:37:56;;;;;;;5.40;1.00;;;24.80;99.90;;;;;;4917208;29;20217;-69
2022/03/04 07:40:24;;;;;;;5.23;0.87;;;25.10;99.90;;;;;;4917116;29;20261;-70
2022/03/04 07:42:52;;;;;;;3.57;0.80;;;25.20;99.90;;;;;;4916966;29;20193;-70
2022/03/04 07:45:19;;;;;;;1.70;0.70;;;25.10;99.90;;;;;;4915992;29;20197;-68
2022/03/04 07:47:47;;;;;;;4.03;0.90;;;24.80;99.90;;;;;;4917175;29;20570;-71
2022/03/04 07:50:16;;;;;;;5.20;0.80;;;24.60;99.90;;;;;;4917153;29;20185;-69
2022/03/04 07:52:44;;;;;;;6.70;1.40;;;24.50;99.90;;;;;;4916684;29;20196;-72
2022/03/04 07:55:15;;;;;;;4.33;1.13;;;24.50;99.90;;;;;;4915595;29;20607;-71
2022/03/04 07:57:46;;;;;;;2.77;1.07;;;24.40;99.90;;;;;;4917650;29;20332;-74
2022/03/04 08:00:17;;;;;;;8.27;2.07;;;24.20;99.90;;;;;;4917925;29;20244;-71
2022/03/04 08:02:45;;;;;;;3.50;1.60;;;24.20;99.90;;;;;;4917989;29;20220;-70
2022/03/04 08:05:12;;;;;;;6.03;1.90;;;24.10;99.90;;;;;;4917471;29;20613;-69
2022/03/04 08:07:41;;;;;;;6.80;2.20;;;24.10;99.90;;;;;;4917640;29;20211;-69
2022/03/04 08:10:11;;;;;;;3.80;1.37;;;24.00;99.90;;;;;;4898836;29;20727;-68
2022/03/04 08:12:39;;;;;;;6.10;2.03;;;23.90;99.90;;;;;;4898973;29;20190;-70
2022/03/04 08:15:10;;;;;;;6.77;1.73;;;23.80;99.90;;;;;;4914947;29;20596;-70
2022/03/04 08:17:39;;;;;;;4.87;1.63;;;23.80;99.90;;;;;;4917593;29;20236;-70
2022/03/04 08:20:08;;;;;;;4.47;0.90;;;23.70;99.90;;;;;;4917309;29;20252;-70
2022/03/04 08:22:36;;;;;;;3.70;1.03;;;23.70;99.90;;;;;;4917776;29;20704;-70
2022/03/04 08:25:05;;;;;;;6.47;1.30;;;23.60;99.90;;;;;;4916404;29;20216;-69
2022/03/04 08:27:38;;;;;;;4.00;1.43;;;23.60;99.90;;;;;;4917133;29;20199;-70
2022/03/04 08:30:08;;;;;;;5.10;1.20;;;23.60;99.90;;;;;;4917073;29;20189;-71
2022/03/04 08:32:36;;;;;;;5.60;1.00;;;23.60;99.90;;;;;;4916656;29;20558;-70
2022/03/04 08:35:05;;;;;;;6.87;2.40;;;23.50;99.90;;;;;;4917124;29;20592;-70
2022/03/04 08:37:34;;;;;;;5.70;1.50;;;23.50;99.90;;;;;;4917310;29;20261;-70
2022/03/04 08:40:03;;;;;;;6.17;1.30;;;23.50;99.90;;;;;;4916814;29;20184;-70
2022/03/04 08:42:30;;;;;;;6.53;1.50;;;23.50;99.90;;;;;;4917164;29;20582;-71
2022/03/04 08:44:57;;;;;;;7.00;1.50;;;23.40;99.90;;;;;;4916924;29;20662;-70
2022/03/04 08:47:25;;;;;;;4.40;1.67;;;23.40;99.90;;;;;;4917258;29;20282;-68
2022/03/04 08:49:52;;;;;;;5.83;1.60;;;23.40;99.90;;;;;;4916833;29;20188;-70
2022/03/04 08:52:19;;;;;;;4.37;1.40;;;23.40;99.90;;;;;;4917279;29;20180;-69
2022/03/04 08:54:47;;;;;;;4.03;1.63;;;23.40;99.90;;;;;;4917163;29;20213;-70
2022/03/04 08:57:14;;;;;;;8.30;2.30;;;23.40;99.90;;;;;;4916986;29;20232;-71
2022/03/04 08:59:41;;;;;;;6.63;2.23;;;23.40;99.90;;;;;;4916942;29;20207;-70
2022/03/04 09:02:09;;;;;;;6.80;2.03;;;23.30;99.90;;;;;;4918982;29;20187;-69
2022/03/04 09:04:37;;;;;;;10.83;3.00;;;23.30;99.90;;;;;;4929899;29;20173;-71
2022/03/04 09:07:06;;;;;;;7.87;2.90;;;23.30;99.90;;;;;;4929028;29;20213;-69
2022/03/04 09:09:35;;;;;;;12.80;2.50;;;23.30;99.90;;;;;;4936863;29;20224;-70
2022/03/04 09:12:03;;;;;;;7.33;1.67;;;23.20;99.90;;;;;;4915364;29;20181;-69
2022/03/04 09:14:30;;;;;;;9.67;1.77;;;23.10;99.90;;;;;;4931317;29;20173;-69
2022/03/04 09:16:58;;;;;;;4.13;1.20;;;23.10;99.90;;;;;;4919527;29;20213;-70
2022/03/04 09:19:27;;;;;;;3.47;1.20;;;23.00;99.90;;;;;;4915121;29;20177;-70
2022/03/04 09:21:54;;;;;;;4.90;1.57;;;23.00;99.90;;;;;;4914815;29;20184;-70
2022/03/04 09:24:21;;;;;;;9.13;1.70;;;22.90;99.90;;;;;;4915810;29;20190;-70
2022/03/04 09:26:49;;;;;;;7.13;1.50;;;22.90;99.90;;;;;;4916592;29;20257;-70
2022/03/04 09:29:16;;;;;;;3.93;1.47;;;22.80;99.90;;;;;;4916969;29;20664;-70
2022/03/04 09:31:43;;;;;;;8.17;1.40;;;22.80;99.90;;;;;;4916520;29;20196;-70
2022/03/04 09:34:11;;;;;;;7.67;1.67;;;22.70;99.90;;;;;;4916049;29;20215;-68
2022/03/04 09:36:39;;;;;;;7.70;1.30;;;22.70;99.90;;;;;;4916775;29;20209;-71
2022/03/04 09:39:06;;;;;;;8.80;1.63;;;22.60;99.90;;;;;;4916366;29;20650;-70
2022/03/04 09:41:34;;;;;;;8.63;1.60;;;22.60;99.90;;;;;;4920007;29;20755;-69
2022/03/04 09:44:02;;;;;;;5.00;1.20;;;22.60;99.90;;;;;;4920348;29;20651;-70
2022/03/04 09:46:30;;;;;;;6.87;1.30;;;22.50;99.90;;;;;;4920587;29;20221;-71
2022/03/04 09:48:57;;;;;;;4.80;1.37;;;22.50;99.90;;;;;;4920635;29;20191;-71
2022/03/04 09:51:24;;;;;;;7.97;1.50;;;22.40;99.90;;;;;;4920361;29;20189;-70
2022/03/04 09:53:52;;;;;;;8.17;1.47;;;22.40;99.90;;;;;;4920248;29;20216;-71
2022/03/04 09:56:20;;;;;;;5.13;1.30;;;22.40;99.90;;;;;;4920200;29;20252;-71
2022/03/04 09:58:48;;;;;;;5.80;1.43;;;22.40;99.90;;;;;;4920445;29;20208;-70
2022/03/04 10:01:16;;;;;;;8.10;1.90;;;22.40;99.90;;;;;;4920378;29;20187;-71
2022/03/04 10:03:45;;;;;;;7.07;1.53;;;22.40;99.90;;;;;;4919843;29;20185;-71
2022/03/04 10:06:13;;;;;;;4.93;1.80;;;22.40;99.90;;;;;;4920350;29;20228;-70
2022/03/04 10:08:43;;;;;;;5.90;1.43;;;22.50;99.90;;;;;;4919860;29;20271;-69
2022/03/04 10:11:11;;;;;;;6.10;1.60;;;22.50;99.90;;;;;;4919916;29;20685;-71
2022/03/04 10:13:53;;;;;;;6.37;1.67;;;22.50;99.90;;;;;;4919731;29;20587;-71
2022/03/04 10:16:44;;;;;;;6.50;1.23;;;22.60;99.90;;;;;;4920023;29;20195;-70
2022/03/04 10:19:11;;;;;;;6.87;1.50;;;22.60;99.90;;;;;;4919776;29;20192;-69
2022/03/04 10:22:07;;;;;;;5.67;1.07;;;22.60;99.90;;;;;;4919982;29;20213;-71
2022/03/04 10:24:41;;;;;;;5.60;1.20;;;22.70;99.90;;;;;;4907770;29;20212;-70
2022/03/04 10:27:13;;;;;;;5.70;1.17;;;22.70;99.90;;;;;;4920052;29;20195;-69
2022/03/04 10:29:42;;;;;;;10.40;1.87;;;22.70;99.90;;;;;;4920022;29;20189;-71
2022/03/04 10:32:15;;;;;;;5.30;1.30;;;22.70;99.90;;;;;;4919545;29;20197;-70
2022/03/04 10:34:46;;;;;;;6.63;1.37;;;22.70;99.90;;;;;;4918194;29;20189;-71
2022/03/04 10:37:15;;;;;;;7.07;1.53;;;22.70;99.90;;;;;;4919990;29;20209;-70
2022/03/04 10:40:05;;;;;;;4.57;1.33;;;22.70;99.90;;;;;;4919708;29;20184;-70
2022/03/04 10:42:57;;;;;;;7.27;1.77;;;22.70;99.90;;;;;;4919696;29;20216;-71
2022/03/04 10:45:45;;;;;;;6.00;1.43;;;22.70;99.90;;;;;;4900943;29;20197;-69
2022/03/04 10:48:15;;;;;;;3.37;1.13;;;22.70;99.90;;;;;;4900764;29;20212;-71
2022/03/04 10:50:49;;;;;;;6.17;1.67;;;22.70;99.90;;;;;;4900368;29;20188;-70
2022/03/04 10:53:21;;;;;;;6.80;1.50;;;22.70;99.90;;;;;;4900318;29;20181;-71
2022/03/04 10:55:51;;;;;;;3.13;0.90;;;22.70;99.90;;;;;;4918359;29;20204;-70
2022/03/04 10:58:29;;;;;;;4.80;1.63;;;22.70;99.90;;;;;;4919066;29;20224;-70
2022/03/04 11:01:05;;;;;;;4.90;1.87;;;22.70;99.90;;;;;;4919346;29;20232;-71
2022/03/04 11:03:34;;;;;;;6.03;1.63;;;22.70;99.90;;;;;;4919208;29;20177;-70
2022/03/04 11:06:10;;;;;;;4.83;1.40;;;22.70;99.90;;;;;;4917768;29;20186;-70
2022/03/04 11:08:37;;;;;;;4.03;1.47;;;22.70;99.90;;;;;;4917504;29;20193;-70
2022/03/04 11:11:07;;;;;;;5.03;2.13;;;22.70;99.90;;;;;;4917822;29;20224;-70
2022/03/04 11:13:35;;;;;;;3.70;1.40;;;22.70;99.90;;;;;;4919107;29;20188;-71
2022/03/04 11:16:05;;;;;;;5.23;1.57;;;22.70;99.90;;;;;;4917217;29;20280;-69
2022/03/04 11:18:34;;;;;;;10.70;1.97;;;22.70;99.90;;;;;;4918979;29;20224;-70
2022/03/04 11:21:04;;;;;;;6.03;1.50;;;22.70;99.90;;;;;;4918854;29;20177;-70
2022/03/04 11:23:33;;;;;;;3.90;1.40;;;22.70;99.90;;;;;;4918776;29;20253;-69
2022/03/04 11:26:00;;;;;;;4.93;1.60;;;22.60;99.90;;;;;;4918458;29;20192;-70
2022/03/04 11:28:52;;;;;;;4.80;1.70;;;22.50;99.90;;;;;;4917056;29;20665;-69
2022/03/04 11:31:22;;;;;;;7.03;1.50;;;22.40;99.90;;;;;;4918926;29;20635;-69
2022/03/04 11:34:01;;;;;;;5.03;1.40;;;22.50;99.90;;;;;;4918240;29;20186;-70
2022/03/04 11:36:34;;;;;;;6.97;1.87;;;22.50;99.90;;;;;;4918700;29;20516;-69
2022/03/04 11:39:13;;;;;;;9.27;1.80;;;22.50;99.90;;;;;;4918567;29;20196;-70
2022/03/04 11:42:00;;;;;;;6.07;1.67;;;22.50;99.90;;;;;;4918589;29;20181;-69
2022/03/04 11:44:27;;;;;;;5.20;1.50;;;22.50;99.90;;;;;;4917945;29;20673;-70
2022/03/04 11:47:04;;;;;;;8.40;2.10;;;22.40;99.90;;;;;;4917182;29;20214;-70
2022/03/04 11:49:47;;;;;;;5.97;2.03;;;22.40;99.90;;;;;;4899561;29;20193;-70
2022/03/04 11:52:27;;;;;;;7.30;1.50;;;22.50;99.90;;;;;;4899590;29;20200;-71
2022/03/04 11:55:00;;;;;;;6.40;1.80;;;22.50;99.90;;;;;;4908137;29;20191;-70
2022/03/04 11:57:28;;;;;;;12.97;2.57;;;22.50;99.90;;;;;;4918023;29;20232;-70
2022/03/04 11:59:56;;;;;;;6.17;2.10;;;22.50;99.90;;;;;;4918200;29;20235;-69
2022/03/04 12:02:46;;;;;;;8.00;1.70;;;22.40;99.90;;;;;;4917597;29;20725;-69
2022/03/04 12:05:22;;;;;;;9.00;2.13;;;22.40;99.90;;;;;;4908769;29;20228;-70
2022/03/04 12:08:08;;;;;;;9.80;2.00;;;22.40;99.90;;;;;;4918077;29;20192;-70
2022/03/04 12:10:40;;;;;;;9.50;2.60;;;22.30;99.90;;;;;;4918105;29;20639;-70
2022/03/04 12:13:23;;;;;;;5.17;1.70;;;22.30;99.90;;;;;;4917826;29;20179;-69
2022/03/04 12:15:55;;;;;;;12.17;2.80;;;22.20;99.90;;;;;;4917570;29;20184;-69
2022/03/04 12:18:27;;;;;;;11.47;1.70;;;22.20;99.90;;;;;;4917848;29;20244;-69
2022/03/04 12:20:57;;;;;;;7.40;1.83;;;22.10;99.90;;;;;;4917939;29;20178;-69
2022/03/04 12:23:38;;;;;;;7.60;1.70;;;22.20;99.90;;;;;;4917823;29;20260;-69
2022/03/04 12:26:05;;;;;;;5.33;2.20;;;22.20;99.90;;;;;;4917445;29;20183;-70
2022/03/04 12:28:47;;;;;;;7.13;2.60;;;22.20;99.90;;;;;;4917737;29;20209;-69
2022/03/04 12:31:15;;;;;;;8.20;2.17;;;22.20;99.90;;;;;;4917609;29;20185;-70
2022/03/04 12:33:46;;;;;;;6.87;2.30;;;22.20;99.90;;;;;;4917868;29;20204;-70
2022/03/04 12:36:18;;;;;;;6.83;2.10;;;22.20;99.90;;;;;;4916019;29;20599;-69
2022/03/04 12:38:51;;;;;;;9.03;1.80;;;22.30;99.90;;;;;;4917121;29;20252;-70
2022/03/04 12:41:21;;;;;;;9.43;2.03;;;22.30;99.90;;;;;;4917524;29;20185;-69
2022/03/04 12:44:01;;;;;;;7.07;2.37;;;22.20;99.90;;;;;;4917786;29;20642;-69
2022/03/04 12:46:34;;;;;;;7.43;2.57;;;22.20;99.90;;;;;;4898732;29;20185;-69
2022/03/04 12:49:03;;;;;;;8.33;2.27;;;22.30;99.90;;;;;;4898555;29;20205;-70
2022/03/04 12:51:33;;;;;;;8.67;2.33;;;22.30;99.90;;;;;;4898737;29;20187;-69
2022/03/04 12:54:07;;;;;;;7.77;2.20;;;22.30;99.90;;;;;;4912423;29;20197;-69
2022/03/04 12:56:34;;;;;;;5.10;2.13;;;22.20;99.90;;;;;;4916951;29;20243;-70
2022/03/04 12:59:05;;;;;;;8.37;2.20;;;22.20;99.90;;;;;;4916944;29;20186;-70
2022/03/04 13:01:32;;;;;;;12.43;2.60;;;22.20;99.90;;;;;;4916121;29;20203;-69
2022/03/04 13:04:06;;;;;;;10.77;2.30;;;22.30;99.90;;;;;;4915384;29;20204;-70